createdAt,value
2019-01-29T00:00:38.771Z,2.70
2019-01-29T00:03:08.733Z,3.47
2019-01-29T00:05:37.540Z,3.77
2019-01-29T00:08:07.932Z,2.60
2019-01-29T00:10:37.355Z,2.97
2019-01-29T00:13:06.749Z,3.83
2019-01-29T00:15:35.993Z,2.67
2019-01-29T00:18:05.811Z,2.43
2019-01-29T00:20:35.334Z,2.57
2019-01-29T00:23:04.639Z,2.60
2019-01-29T00:25:33.907Z,2.40
2019-01-29T00:28:03.325Z,3.77
2019-01-29T00:30:32.492Z,2.53
2019-01-29T00:33:01.835Z,2.53
2019-01-29T00:35:31.116Z,3.47
2019-01-29T00:38:00.324Z,2.30
2019-01-29T00:40:29.777Z,3.67
2019-01-29T00:42:59.076Z,3.50
2019-01-29T00:45:27.729Z,3.17
2019-01-29T00:47:56.553Z,2.60
2019-01-29T00:50:25.159Z,4.03
2019-01-29T00:52:54.783Z,3.70
2019-01-29T00:55:24.299Z,3.85
2019-01-29T00:57:57.003Z,3.40
2019-01-29T01:00:26.551Z,3.07
2019-01-29T01:02:56.452Z,3.70
2019-01-29T01:05:26.472Z,2.53
2019-01-29T01:07:57.025Z,3.65
2019-01-29T01:10:26.573Z,3.77
2019-01-29T01:12:55.914Z,3.50
2019-01-29T01:15:26.151Z,4.05
2019-01-29T01:17:55.393Z,3.75
2019-01-29T01:20:24.751Z,4.12
2019-01-29T01:22:55.419Z,4.37
2019-01-29T01:25:24.456Z,3.37
2019-01-29T01:27:53.898Z,3.20
2019-01-29T01:30:23.201Z,5.50
2019-01-29T01:32:51.937Z,5.75
2019-01-29T01:35:20.641Z,5.87
2019-01-29T01:37:49.453Z,4.53
2019-01-29T01:40:20.554Z,3.75
2019-01-29T01:42:49.754Z,5.00
2019-01-29T01:45:19.952Z,2.70
2019-01-29T01:47:50.122Z,4.85
2019-01-29T01:50:19.887Z,4.35
2019-01-29T01:52:48.981Z,3.40
2019-01-29T01:55:18.501Z,4.87
2019-01-29T01:57:47.838Z,3.83
2019-01-29T02:00:20.782Z,3.47
2019-01-29T02:02:49.512Z,5.20
2019-01-29T02:05:18.934Z,4.17
2019-01-29T02:07:47.907Z,3.35
2019-01-29T02:10:19.698Z,4.12
2019-01-29T02:12:50.285Z,4.42
2019-01-29T02:15:20.136Z,4.17
2019-01-29T02:17:48.920Z,4.42
2019-01-29T02:20:18.145Z,4.58
2019-01-29T02:22:48.197Z,10.28
2019-01-29T02:25:16.952Z,4.03
2019-01-29T02:27:46.431Z,4.25
2019-01-29T02:30:18.043Z,3.55
2019-01-29T02:32:47.431Z,6.33
2019-01-29T02:35:17.389Z,3.67
2019-01-29T02:37:47.474Z,4.20
2019-01-29T02:40:24.422Z,3.60
2019-01-29T02:42:53.761Z,6.10
2019-01-29T02:45:23.637Z,4.53
2019-01-29T02:47:53.353Z,3.15
2019-01-29T02:50:22.334Z,3.72
2019-01-29T02:52:51.215Z,6.45
2019-01-29T02:55:20.396Z,5.10
2019-01-29T02:57:49.127Z,3.50
2019-01-29T03:00:20.390Z,4.85
2019-01-29T03:02:50.018Z,3.70
2019-01-29T03:05:19.392Z,6.97
2019-01-29T03:07:48.314Z,5.37
2019-01-29T03:10:23.244Z,5.58
2019-01-29T03:12:52.650Z,4.50
2019-01-29T03:15:29.553Z,4.72
2019-01-29T03:17:59.203Z,4.55
2019-01-29T03:20:29.631Z,4.45
2019-01-29T03:22:59.674Z,4.65
2019-01-29T03:25:28.935Z,6.37
2019-01-29T03:27:58.355Z,6.37
2019-01-29T03:30:27.137Z,4.90
2019-01-29T03:32:55.857Z,6.35
2019-01-29T03:35:24.693Z,6.35
2019-01-29T03:37:53.486Z,5.67
2019-01-29T03:40:27.196Z,5.85
2019-01-29T03:42:56.060Z,5.35
2019-01-29T03:45:26.414Z,6.95
2019-01-29T03:47:55.940Z,5.95
2019-01-29T03:50:25.138Z,7.33
2019-01-29T03:52:53.862Z,6.70
2019-01-29T03:55:22.638Z,7.17
2019-01-29T03:57:51.477Z,6.75
2019-01-29T04:00:28.153Z,7.22
2019-01-29T04:02:57.152Z,6.20
2019-01-29T04:05:26.726Z,7.85
2019-01-29T04:07:55.831Z,7.55
2019-01-29T04:10:25.113Z,6.60
2019-01-29T04:12:55.379Z,7.33
2019-01-29T04:15:24.239Z,7.12
2019-01-29T04:17:57.260Z,6.95
2019-01-29T04:20:26.518Z,8.10
2019-01-29T04:22:56.049Z,6.92
2019-01-29T04:25:24.877Z,7.75
2019-01-29T04:27:53.441Z,5.65
2019-01-29T04:30:23.046Z,6.58
2019-01-29T04:32:52.093Z,6.95
2019-01-29T04:35:20.744Z,6.87
2019-01-29T04:37:49.583Z,6.78
2019-01-29T04:40:19.940Z,7.03
2019-01-29T04:42:50.293Z,6.55
2019-01-29T04:45:19.612Z,8.88
2019-01-29T04:47:48.881Z,6.10
2019-01-29T04:50:19.457Z,6.53
2019-01-29T04:52:48.901Z,6.83
2019-01-29T04:55:18.809Z,5.45
2019-01-29T04:57:49.080Z,5.95
2019-01-29T05:00:20.339Z,5.45
2019-01-29T05:02:49.133Z,6.33
2019-01-29T05:05:20.301Z,6.10
2019-01-29T05:07:49.291Z,6.53
2019-01-29T05:10:20.004Z,6.25
2019-01-29T05:12:48.742Z,6.60
2019-01-29T05:15:19.271Z,7.10
2019-01-29T05:17:48.597Z,6.00
2019-01-29T05:20:18.994Z,6.67
2019-01-29T05:22:48.321Z,5.97
2019-01-29T05:25:17.626Z,7.85
2019-01-29T05:27:46.549Z,6.33
2019-01-29T05:30:20.629Z,5.62
2019-01-29T05:32:48.297Z,6.00
2019-01-29T05:35:17.157Z,6.00
2019-01-29T05:37:45.885Z,6.47
2019-01-29T05:40:21.460Z,5.45
2019-01-29T05:42:50.966Z,7.35
2019-01-29T05:45:21.459Z,7.65
2019-01-29T05:47:51.940Z,5.67
2019-01-29T05:50:20.717Z,10.13
2019-01-29T05:52:49.456Z,6.00
2019-01-29T05:55:18.260Z,6.03
2019-01-29T05:57:46.906Z,6.90
2019-01-29T06:00:18.697Z,6.85
2019-01-29T06:02:48.685Z,7.45
2019-01-29T06:05:17.979Z,6.28
2019-01-29T06:07:46.820Z,7.95
2019-01-29T06:10:16.892Z,7.37
2019-01-29T06:12:45.536Z,9.28
2019-01-29T06:15:19.199Z,7.75
2019-01-29T06:17:48.829Z,6.80
2019-01-29T06:20:19.484Z,7.72
2019-01-29T06:22:49.008Z,8.53
2019-01-29T06:25:18.271Z,7.00
2019-01-29T06:27:47.930Z,9.00
2019-01-29T06:30:18.769Z,8.30
2019-01-29T06:32:48.056Z,9.18
2019-01-29T06:35:18.403Z,8.33
2019-01-29T06:37:47.047Z,8.65
2019-01-29T06:40:27.039Z,7.75
2019-01-29T06:42:56.698Z,6.80
2019-01-29T06:45:27.040Z,9.35
2019-01-29T06:47:55.865Z,7.50
2019-01-29T06:50:26.635Z,11.20
2019-01-29T06:52:56.397Z,7.42
2019-01-29T06:55:26.294Z,6.67
2019-01-29T06:57:56.132Z,7.08
2019-01-29T07:00:30.081Z,6.58
2019-01-29T07:02:59.642Z,8.03
2019-01-29T07:05:29.232Z,6.37
2019-01-29T07:07:58.952Z,6.15
2019-01-29T07:10:28.381Z,6.10
2019-01-29T07:12:57.974Z,6.70
2019-01-29T07:15:50.193Z,7.58
2019-01-29T07:18:21.725Z,7.83
2019-01-29T07:20:51.436Z,7.22
2019-01-29T07:23:20.082Z,7.70
2019-01-29T07:25:48.968Z,6.92
2019-01-29T07:28:17.604Z,6.70
2019-01-29T07:30:46.384Z,7.28
2019-01-29T07:33:16.189Z,6.80
2019-01-29T07:35:45.242Z,9.10
2019-01-29T07:38:14.494Z,11.15
2019-01-29T07:40:44.053Z,7.83
2019-01-29T07:43:13.477Z,8.70
2019-01-29T07:45:43.368Z,8.88
2019-01-29T07:48:12.829Z,8.40
2019-01-29T07:50:42.110Z,8.93
2019-01-29T07:53:11.601Z,10.58
2019-01-29T07:55:40.660Z,12.45
2019-01-29T07:58:10.413Z,9.50
2019-01-29T08:00:39.876Z,11.28
2019-01-29T08:03:10.316Z,9.18
2019-01-29T08:05:39.906Z,9.18
2019-01-29T08:08:08.946Z,9.08
2019-01-29T08:10:37.795Z,7.50
2019-01-29T08:13:06.732Z,8.08
2019-01-29T08:15:36.456Z,6.65
2019-01-29T08:18:06.170Z,8.40
2019-01-29T08:20:36.354Z,8.68
2019-01-29T08:23:05.663Z,9.88
2019-01-29T08:25:35.085Z,8.25
2019-01-29T08:28:04.375Z,9.60
2019-01-29T08:30:33.988Z,8.95
2019-01-29T08:33:03.860Z,9.08
2019-01-29T08:35:33.434Z,9.45
2019-01-29T08:38:02.727Z,7.70
2019-01-29T08:40:32.035Z,9.53
2019-01-29T08:43:01.616Z,10.23
2019-01-29T08:45:30.886Z,9.28
2019-01-29T08:48:00.553Z,8.35
2019-01-29T08:50:30.064Z,10.43
2019-01-29T08:52:58.789Z,9.83
2019-01-29T08:55:27.490Z,8.60
2019-01-29T08:57:56.268Z,8.80
2019-01-29T09:00:25.137Z,8.93
2019-01-29T09:02:54.603Z,8.73
2019-01-29T09:05:23.714Z,9.40
2019-01-29T09:07:53.095Z,9.40
2019-01-29T09:10:22.948Z,9.03
2019-01-29T09:12:52.812Z,10.05
2019-01-29T09:15:22.317Z,9.30
2019-01-29T09:17:51.717Z,8.98
2019-01-29T09:20:25.554Z,7.67
2019-01-29T09:22:55.261Z,10.15
2019-01-29T09:25:24.942Z,9.93
2019-01-29T09:27:54.202Z,10.15
2019-01-29T09:30:23.628Z,9.33
2019-01-29T09:32:52.506Z,8.10
2019-01-29T09:35:21.273Z,8.60
2019-01-29T09:37:49.896Z,10.70
2019-01-29T09:40:22.971Z,9.85
2019-01-29T09:42:52.900Z,9.08
2019-01-29T09:45:22.192Z,8.55
2019-01-29T09:47:52.567Z,8.95
2019-01-29T09:50:24.799Z,7.25
2019-01-29T09:52:54.391Z,9.33
2019-01-29T09:55:29.598Z,8.20
2019-01-29T09:57:56.131Z,8.90
2019-01-29T10:00:33.962Z,8.23
2019-01-29T10:03:03.871Z,9.28
2019-01-29T10:05:33.212Z,9.33
2019-01-29T10:08:02.622Z,8.05
2019-01-29T10:10:31.905Z,8.30
2019-01-29T10:13:01.191Z,8.00
2019-01-29T10:15:31.873Z,8.23
2019-01-29T10:18:02.709Z,7.72
2019-01-29T10:20:31.788Z,9.10
2019-01-29T10:23:01.237Z,8.28
2019-01-29T10:25:37.397Z,8.08
2019-01-29T10:28:01.883Z,7.30
2019-01-29T10:30:31.424Z,8.23
2019-01-29T10:33:00.911Z,9.33
2019-01-29T10:35:31.103Z,8.75
2019-01-29T10:38:00.368Z,7.28
2019-01-29T10:40:30.629Z,9.30
2019-01-29T10:42:59.948Z,8.75
2019-01-29T10:45:31.150Z,8.35
2019-01-29T10:48:00.100Z,9.83
2019-01-29T10:50:31.435Z,9.08
2019-01-29T10:53:00.826Z,9.30
2019-01-29T10:55:30.288Z,10.45
2019-01-29T10:57:59.538Z,9.83
2019-01-29T11:00:33.264Z,10.90
2019-01-29T11:03:02.731Z,10.25
2019-01-29T11:05:31.850Z,7.70
2019-01-29T11:08:00.823Z,9.70
2019-01-29T11:10:29.725Z,9.35
2019-01-29T11:12:58.463Z,10.00
2019-01-29T11:15:29.534Z,8.75
2019-01-29T11:17:58.619Z,9.00
2019-01-29T11:20:27.940Z,9.00
2019-01-29T11:22:57.289Z,9.00
2019-01-29T11:25:30.711Z,7.65
2019-01-29T11:28:00.249Z,8.98
2019-01-29T11:30:32.826Z,8.93
2019-01-29T11:33:02.225Z,10.85
2019-01-29T11:35:31.881Z,9.48
2019-01-29T11:38:02.156Z,8.88
2019-01-29T11:40:34.519Z,8.88
2019-01-29T11:43:04.125Z,8.75
2019-01-29T11:45:36.589Z,9.83
2019-01-29T11:48:05.713Z,7.45
2019-01-29T11:50:35.076Z,10.10
2019-01-29T11:53:04.736Z,10.58
2019-01-29T11:55:33.878Z,9.33
2019-01-29T11:58:02.647Z,10.85
2019-01-29T12:00:41.341Z,9.80
2019-01-29T12:03:10.268Z,10.53
2019-01-29T12:05:39.355Z,11.18
2019-01-29T12:08:08.672Z,8.43
2019-01-29T12:10:38.148Z,8.75
2019-01-29T12:13:07.392Z,9.98
2019-01-29T12:15:37.808Z,11.48
2019-01-29T12:18:06.859Z,11.50
2019-01-29T12:20:35.923Z,10.95
2019-01-29T12:23:05.560Z,12.15
2019-01-29T12:25:34.728Z,10.72
2019-01-29T12:28:03.878Z,10.05
2019-01-29T12:30:33.211Z,12.07
2019-01-29T12:33:04.356Z,11.68
2019-01-29T12:35:33.427Z,13.25
2019-01-29T12:38:02.773Z,10.65
2019-01-29T12:40:32.809Z,12.37
2019-01-29T12:43:01.941Z,12.20
2019-01-29T12:45:31.364Z,10.88
2019-01-29T12:48:00.762Z,11.95
2019-01-29T12:50:31.864Z,11.95
2019-01-29T12:53:08.763Z,9.70
2019-01-29T12:55:38.084Z,11.55
2019-01-29T12:58:07.510Z,9.78
2019-01-29T13:00:41.075Z,10.40
2019-01-29T13:03:11.398Z,12.43
2019-01-29T13:05:40.705Z,11.12
2019-01-29T13:08:10.504Z,11.70
2019-01-29T13:10:39.893Z,10.53
2019-01-29T13:13:09.277Z,10.98
2019-01-29T13:15:38.531Z,12.28
2019-01-29T13:18:07.298Z,10.93
2019-01-29T13:20:36.018Z,12.82
2019-01-29T13:23:05.270Z,10.70
2019-01-29T13:25:33.921Z,11.05
2019-01-29T13:28:03.214Z,10.43
2019-01-29T13:30:33.977Z,9.68
2019-01-29T13:33:04.932Z,10.43
2019-01-29T13:35:35.299Z,13.50
2019-01-29T13:38:05.542Z,10.23
2019-01-29T13:40:34.536Z,9.60
2019-01-29T13:43:03.671Z,12.50
2019-01-29T13:45:32.846Z,13.40
2019-01-29T13:48:02.143Z,13.08
2019-01-29T13:50:36.675Z,10.68
2019-01-29T13:53:06.301Z,12.95
2019-01-29T13:55:35.585Z,14.00
2019-01-29T13:58:05.891Z,8.70
2019-01-29T14:00:36.978Z,9.23
2019-01-29T14:03:05.908Z,12.13
2019-01-29T14:05:34.667Z,9.50
2019-01-29T14:08:04.153Z,9.08
2019-01-29T14:10:32.883Z,10.65
2019-01-29T14:13:02.121Z,12.80
2019-01-29T14:15:32.904Z,13.75
2019-01-29T14:18:02.259Z,9.50
2019-01-29T14:20:31.238Z,13.05
2019-01-29T14:23:00.327Z,9.93
2019-01-29T14:25:29.518Z,11.22
2019-01-29T14:27:58.977Z,10.35
2019-01-29T14:30:29.248Z,11.88
2019-01-29T14:32:58.536Z,13.20
2019-01-29T14:35:27.861Z,12.10
2019-01-29T14:37:59.837Z,11.80
2019-01-29T14:40:29.824Z,10.95
2019-01-29T14:42:59.059Z,11.48
2019-01-29T14:45:29.850Z,9.30
2019-01-29T14:47:58.914Z,17.67
2019-01-29T14:50:27.930Z,8.73
2019-01-29T14:52:57.468Z,10.63
2019-01-29T14:55:26.441Z,12.35
2019-01-29T14:57:55.532Z,10.32
2019-01-29T15:00:36.252Z,14.23
2019-01-29T15:03:05.860Z,10.88
2019-01-29T15:05:35.122Z,9.85
2019-01-29T15:08:04.520Z,12.75
2019-01-29T15:10:33.789Z,9.48
2019-01-29T15:13:03.426Z,11.53
2019-01-29T15:15:36.010Z,9.58
2019-01-29T15:18:08.521Z,13.32
2019-01-29T15:20:38.956Z,10.55
2019-01-29T15:23:08.321Z,11.80
2019-01-29T15:25:37.735Z,11.50
2019-01-29T15:28:07.008Z,11.35
2019-01-29T15:30:35.656Z,10.88
2019-01-29T15:33:04.434Z,10.43
2019-01-29T15:35:33.391Z,13.38
2019-01-29T15:38:02.011Z,11.18
2019-01-29T15:40:31.036Z,10.32
2019-01-29T15:43:00.409Z,12.58
2019-01-29T15:45:30.294Z,15.25
2019-01-29T15:47:59.763Z,14.15
2019-01-29T15:50:31.205Z,14.58
2019-01-29T15:53:00.420Z,14.80
2019-01-29T15:55:30.837Z,14.85
2019-01-29T15:58:00.257Z,15.30
2019-01-29T16:00:39.322Z,12.82
2019-01-29T16:03:08.478Z,11.10
2019-01-29T16:05:40.965Z,12.85
2019-01-29T16:08:12.392Z,13.65
2019-01-29T16:10:43.719Z,11.43
2019-01-29T16:13:12.895Z,12.73
2019-01-29T16:15:42.567Z,11.60
2019-01-29T16:18:12.581Z,11.97
2019-01-29T16:20:41.426Z,12.07
2019-01-29T16:23:10.314Z,12.50
2019-01-29T16:25:39.720Z,13.58
2019-01-29T16:28:09.174Z,13.28
2019-01-29T16:30:39.283Z,9.85
2019-01-29T16:33:08.738Z,12.43
2019-01-29T16:35:42.544Z,9.68
2019-01-29T16:38:11.915Z,12.68
2019-01-29T16:40:43.581Z,12.85
2019-01-29T16:43:12.710Z,12.18
2019-01-29T16:45:41.893Z,10.93
2019-01-29T16:48:11.743Z,11.90
2019-01-29T16:50:42.072Z,12.13
2019-01-29T16:53:11.263Z,10.25
2019-01-29T16:55:40.395Z,11.15
2019-01-29T16:58:09.689Z,11.53
2019-01-29T17:00:44.362Z,9.55
2019-01-29T17:03:13.136Z,8.48
2019-01-29T17:05:42.255Z,9.78
2019-01-29T17:08:12.019Z,10.45
2019-01-29T17:10:42.454Z,8.65
2019-01-29T17:13:11.637Z,10.63
2019-01-29T17:15:40.817Z,12.03
2019-01-29T17:18:11.758Z,10.28
2019-01-29T17:20:45.342Z,9.58
2019-01-29T17:23:14.465Z,9.05
2019-01-29T17:25:43.979Z,10.65
2019-01-29T17:28:13.439Z,9.20
2019-01-29T17:30:45.961Z,9.60
2019-01-29T17:33:17.547Z,8.50
2019-01-29T17:35:47.037Z,9.60
2019-01-29T17:38:16.499Z,8.03
2019-01-29T17:40:45.829Z,8.33
2019-01-29T17:43:14.809Z,9.90
2019-01-29T17:45:45.435Z,8.45
2019-01-29T17:48:14.516Z,8.30
2019-01-29T17:50:44.994Z,11.73
2019-01-29T17:53:13.845Z,8.13
2019-01-29T17:55:43.815Z,7.83
2019-01-29T17:58:13.287Z,8.83
2019-01-29T18:00:50.217Z,7.72
2019-01-29T18:03:19.543Z,9.77
2019-01-29T18:05:48.656Z,9.60
2019-01-29T18:08:18.286Z,8.17
2019-01-29T18:10:48.682Z,10.07
2019-01-29T18:13:17.624Z,9.23
2019-01-29T18:15:47.028Z,7.70
2019-01-29T18:18:16.257Z,9.23
2019-01-29T18:20:45.438Z,10.05
2019-01-29T18:23:14.754Z,9.05
2019-01-29T18:25:44.252Z,10.00
2019-01-29T18:28:12.889Z,9.27
2019-01-29T18:30:41.636Z,10.35
2019-01-29T18:33:10.318Z,9.87
2019-01-29T18:35:39.630Z,8.97
2019-01-29T18:38:08.727Z,7.23
2019-01-29T18:40:41.170Z,7.80
2019-01-29T18:43:10.587Z,9.60
2019-01-29T18:45:39.898Z,8.63
2019-01-29T18:48:10.580Z,7.43
2019-01-29T18:50:41.084Z,7.83
2019-01-29T18:53:10.231Z,7.87
2019-01-29T18:55:39.685Z,8.33
2019-01-29T18:58:12.042Z,8.90
2019-01-29T19:00:39.730Z,8.20
2019-01-29T19:03:08.891Z,8.30
2019-01-29T19:05:38.242Z,7.67
2019-01-29T19:08:07.816Z,7.77
2019-01-29T19:10:36.907Z,7.43
2019-01-29T19:13:06.246Z,9.73
2019-01-29T19:15:35.155Z,7.03
2019-01-29T19:18:03.848Z,10.43
2019-01-29T19:20:32.882Z,6.37
2019-01-29T19:23:02.066Z,8.63
2019-01-29T19:25:31.489Z,6.80
2019-01-29T19:28:00.687Z,7.10
2019-01-29T19:30:31.838Z,6.33
2019-01-29T19:33:01.091Z,7.93
2019-01-29T19:35:30.377Z,7.33
2019-01-29T19:37:59.712Z,7.73
2019-01-29T19:40:29.126Z,6.50
2019-01-29T19:42:59.437Z,6.10
2019-01-29T19:45:33.741Z,7.53
2019-01-29T19:48:03.119Z,7.80
2019-01-29T19:53:19.174Z,5.43
2019-01-29T19:55:50.516Z,7.17
2019-01-29T19:58:31.934Z,6.00
2019-01-29T20:01:01.583Z,6.67
2019-01-29T20:03:31.990Z,8.83
2019-01-29T20:06:03.839Z,7.43
2019-01-29T20:08:36.737Z,7.07
2019-01-29T20:11:08.229Z,7.47
2019-01-29T20:13:39.372Z,6.97
2019-01-29T20:16:08.686Z,5.57
2019-01-29T20:18:40.320Z,6.40
2019-01-29T20:21:16.820Z,7.70
2019-01-29T20:23:55.857Z,6.87
2019-01-29T20:26:26.380Z,6.20
2019-01-29T20:32:02.735Z,5.00
2019-01-29T20:34:33.301Z,7.50
2019-01-29T20:37:07.402Z,6.17
2019-01-29T20:39:37.990Z,6.90
2019-01-29T20:42:09.572Z,5.77
2019-01-29T20:44:47.408Z,5.40
2019-01-29T20:47:18.410Z,8.63
2019-01-29T20:49:50.739Z,5.60
2019-01-29T20:52:21.075Z,5.95
2019-01-29T20:54:50.447Z,5.60
2019-01-29T20:57:21.995Z,5.50
2019-01-29T20:59:54.404Z,6.50
2019-01-29T21:02:26.634Z,5.50
2019-01-29T21:04:58.124Z,4.87
2019-01-29T21:07:31.072Z,5.70
2019-01-29T21:10:00.581Z,4.83
2019-01-29T21:12:30.849Z,8.77
2019-01-29T21:15:02.517Z,6.50
2019-01-29T21:17:32.788Z,6.80
2019-01-29T21:20:05.624Z,5.90
2019-01-29T21:22:34.853Z,5.67
2019-01-29T21:25:05.946Z,6.33
2019-01-29T21:27:34.651Z,6.10
2019-01-29T21:30:05.760Z,6.33
2019-01-29T21:32:34.509Z,7.53
2019-01-29T21:35:05.718Z,5.70
2019-01-29T21:37:45.635Z,5.73
2019-01-29T21:40:22.550Z,8.70
2019-01-29T21:42:51.791Z,6.60
2019-01-29T21:45:22.893Z,6.07
2019-01-29T21:47:54.107Z,6.03
2019-01-29T21:50:25.608Z,7.63
2019-01-29T21:52:58.843Z,6.73
2019-01-29T21:55:29.678Z,5.20
2019-01-29T21:57:59.103Z,4.97
2019-01-29T22:00:40.288Z,4.77
2019-01-29T22:03:12.342Z,6.67
2019-01-29T22:05:41.976Z,5.93
2019-01-29T22:08:15.551Z,7.90
2019-01-29T22:10:43.988Z,5.43
2019-01-29T22:13:15.545Z,6.30
2019-01-29T22:15:44.685Z,7.33
2019-01-29T22:18:16.884Z,6.30
2019-01-29T22:23:39.703Z,5.30
2019-01-29T22:26:11.256Z,6.83
2019-01-29T22:28:42.740Z,6.10
2019-01-29T22:31:13.009Z,5.87
2019-01-29T22:33:42.414Z,6.53
2019-01-29T22:36:12.533Z,7.43
2019-01-29T22:38:54.190Z,4.03
2019-01-29T22:41:34.170Z,5.75
2019-01-29T22:44:03.539Z,7.67
2019-01-29T22:46:39.887Z,5.40
2019-01-29T22:49:10.018Z,6.10
2019-01-29T22:51:43.079Z,6.00
2019-01-29T22:54:16.207Z,6.17
2019-01-29T22:56:46.552Z,4.97
2019-01-29T22:59:18.617Z,6.03
2019-01-29T23:01:48.863Z,6.00
2019-01-29T23:04:17.976Z,5.07
2019-01-29T23:06:55.438Z,5.12
2019-01-29T23:09:29.390Z,6.00
2019-01-29T23:12:00.688Z,5.43
2019-01-29T23:14:34.568Z,5.53
2019-01-29T23:17:14.998Z,7.30
2019-01-29T23:20:00.018Z,6.42
2019-01-29T23:22:29.820Z,5.37
2019-01-29T23:25:01.018Z,6.63
2019-01-29T23:27:31.187Z,9.80
2019-01-29T23:30:00.576Z,5.50
2019-01-29T23:32:29.977Z,5.53
2019-01-29T23:35:02.590Z,5.80
2019-01-29T23:37:31.374Z,5.45
2019-01-29T23:40:02.534Z,8.83
2019-01-29T23:45:20.698Z,5.65
2019-01-29T23:47:53.025Z,6.22
2019-01-29T23:50:24.899Z,6.47
2019-01-29T23:52:57.523Z,7.40
2019-01-29T23:55:33.190Z,8.05
2019-01-29T23:58:03.419Z,8.70
